This is the latest recevied weather packets stored in our database for station/object OE7DRT-13. If no packets are shown the sender has not sent any weather packets the latest 10 day(s).
| Time | Temp. | Humidity | Pressure | Rain* | Wind** | Luminosity | Snow |
|---|---|---|---|---|---|---|---|
| 1777679134 | 6.67° C | 67% | 1026.4 hPa | 0 mm | - | - | - |
| 1777677626 | 6.67° C | 68% | 1026.3 hPa | 0 mm | - | - | - |
| 1777677024 | 6.67° C | 67% | 1026.4 hPa | 0 mm | - | - | - |
| 1777676420 | 7.22° C | 67% | 1026.4 hPa | 0 mm | - | - | - |
| 1777675836 | 7.22° C | 64% | 1026.4 hPa | 0 mm | - | - | - |
| 1777675232 | 7.22° C | 66% | 1026.4 hPa | 0 mm | - | - | - |
| 1777674932 | 7.78° C | 64% | 1026.4 hPa | 0 mm | - | - | - |
| 1777674026 | 7.22° C | 64% | 1026.5 hPa | 0 mm | - | - | - |
| 1777672839 | 7.78° C | 64% | 1026.3 hPa | 0 mm | - | - | - |
| 1777670425 | 9.44° C | 54% | 1026.2 hPa | 0 mm | - | - | - |
| 1777669520 | 9.44° C | 55% | 1025.9 hPa | 0 mm | - | - | - |
| 1777668031 | 9.44° C | 53% | 1025.8 hPa | 0 mm | - | - | - |
| 1777666523 | 10° C | 55% | 1025.6 hPa | 0 mm | - | - | - |
| 1777665034 | 11.11° C | 52% | 1025.1 hPa | 0 mm | - | - | - |
| 1777664129 | 12.22° C | 46% | 1024.9 hPa | 0 mm | - | - | - |
| 1777663526 | 12.78° C | 44% | 1024.7 hPa | 0 mm | - | - | - |
| 1777661434 | 13.33° C | 42% | 1024.4 hPa | 0 mm | - | - | - |
| 1777661132 | 13.33° C | 42% | 1024.2 hPa | 0 mm | - | - | - |
| 1777657533 | 13.33° C | 46% | 1023.3 hPa | 0 mm | - | - | - |
| 1777650029 | 21.11° C | 27% | 1023 hPa | 0 mm | - | - | - |
| 1777649446 | 21.67° C | 26% | 1023 hPa | 0 mm | - | - | - |
| 1777648822 | 21.67° C | 27% | 1023.1 hPa | 0 mm | - | - | - |
| 1777648521 | 21.67° C | 27% | 1023 hPa | 0 mm | - | - | - |
| 1777639529 | 18.89° C | 31% | 1024 hPa | 0 mm | - | - | - |
| 1777639227 | 18.89° C | 31% | 1024 hPa | 0 mm | - | - | - |
* Rain latest hour (hover to see other rain measurements)
** Current wind speed in m/s (hover to see current wind gust speed)